Time;durP1;ratioP1;P1;durP2;ratioP2;P2;SDS_P1;SDS_P2;PMS_P1;PMS_P2;Temp;Humidity;BMP_temperature;BMP_pressure;BME280_temperature;BME280_humidity;BME280_pressure;Samples;Min_cycle;Max_cycle;Signal;HPM_P1;HPM_P2
2022/09/25 00:01:23;;;;;;;130.52;54.25;;;;;;;;;;5028176;28;20407;-59
2022/09/25 00:03:50;;;;;;;161.90;56.30;;;;;;;;;;5028645;28;20963;-60
2022/09/25 00:06:18;;;;;;;132.75;54.10;;;;;;;;;;5024847;28;20080;-60
2022/09/25 00:08:45;;;;;;;126.80;53.15;;;;;;;;;;5024657;28;20048;-61
2022/09/25 00:11:12;;;;;;;171.32;56.30;;;;;;;;;;5024916;28;20045;-60
2022/09/25 00:13:39;;;;;;;128.25;54.40;;;;;;;;;;5024964;28;20492;-59
2022/09/25 00:16:08;;;;;;;167.35;58.90;;;;;;;;;;5027102;28;20051;-61
2022/09/25 00:21:19;;;;;;;133.77;52.45;;;;;;;;;;5025272;28;20037;-60
2022/09/25 00:23:46;;;;;;;137.02;51.65;;;;;;;;;;5024425;28;20037;-60
2022/09/25 00:26:14;;;;;;;124.88;50.60;;;;;;;;;;5023776;28;20045;-58
2022/09/25 00:28:41;;;;;;;124.38;51.85;;;;;;;;;;5024257;28;20412;-61
2022/09/25 00:31:08;;;;;;;155.00;51.42;;;;;;;;;;5025998;28;20045;-58
2022/09/25 00:33:35;;;;;;;121.15;50.63;;;;;;;;;;5026739;28;20064;-59
2022/09/25 00:36:04;;;;;;;143.80;53.53;;;;;;;;;;5023980;28;20049;-58
2022/09/25 00:38:31;;;;;;;181.77;58.55;;;;;;;;;;5024057;28;20590;-58
2022/09/25 00:40:58;;;;;;;166.57;62.05;;;;;;;;;;5027945;28;20042;-59
2022/09/25 00:43:36;;;;;;;163.48;59.38;;;;;;;;;;5024326;28;20065;-58
2022/09/25 00:46:06;;;;;;;188.48;56.72;;;;;;;;;;5024038;28;20053;-58
2022/09/25 00:48:33;;;;;;;132.27;51.35;;;;;;;;;;5026305;28;20049;-59
2022/09/25 00:50:59;;;;;;;140.90;51.67;;;;;;;;;;5024161;28;20057;-59
2022/09/25 00:53:28;;;;;;;136.50;49.45;;;;;;;;;;5024171;28;20438;-59
2022/09/25 00:55:56;;;;;;;163.27;53.65;;;;;;;;;;5023910;28;20052;-58
2022/09/25 00:58:24;;;;;;;125.45;50.45;;;;;;;;;;5024343;28;20040;-59
2022/09/25 01:00:50;;;;;;;145.63;52.65;;;;;;;;;;5024170;28;20038;-60
2022/09/25 01:03:18;;;;;;;126.57;51.00;;;;;;;;;;5023525;28;20120;-60
2022/09/25 01:05:45;;;;;;;152.10;53.58;;;;;;;;;;5023386;28;20065;-60
2022/09/25 01:08:17;;;;;;;138.65;52.53;;;;;;;;;;5023320;28;20045;-60
2022/09/25 01:10:44;;;;;;;138.10;53.17;;;;;;;;;;5024035;28;20558;-60
2022/09/25 01:13:12;;;;;;;164.10;55.40;;;;;;;;;;5025058;28;20670;-58
2022/09/25 01:15:44;;;;;;;149.82;53.67;;;;;;;;;;5026671;28;20034;-60
2022/09/25 01:18:11;;;;;;;157.75;54.30;;;;;;;;;;5023475;28;20045;-59
2022/09/25 01:20:38;;;;;;;152.73;51.38;;;;;;;;;;5027389;28;20064;-59
2022/09/25 01:23:14;;;;;;;126.80;47.83;;;;;;;;;;5023715;28;20511;-59
2022/09/25 01:25:40;;;;;;;141.40;50.47;;;;;;;;;;5023749;28;20488;-59
2022/09/25 01:28:13;;;;;;;164.20;49.83;;;;;;;;;;5028518;28;20050;-61
2022/09/25 01:30:43;;;;;;;144.50;56.72;;;;;;;;;;5029777;28;20045;-58
2022/09/25 01:33:30;;;;;;;145.95;50.42;;;;;;;;;;5026884;28;20047;-60
2022/09/25 01:35:56;;;;;;;133.45;49.83;;;;;;;;;;5027230;28;20463;-60
2022/09/25 01:38:32;;;;;;;114.05;45.78;;;;;;;;;;5027182;28;20491;-58
2022/09/25 01:41:06;;;;;;;127.50;47.85;;;;;;;;;;5027624;28;20041;-59
2022/09/25 01:43:38;;;;;;;141.95;49.10;;;;;;;;;;5027399;28;20113;-59
2022/09/25 01:46:12;;;;;;;170.20;47.25;;;;;;;;;;5029973;28;20095;-60
2022/09/25 01:48:39;;;;;;;110.05;45.25;;;;;;;;;;5030886;28;20041;-59
2022/09/25 01:51:09;;;;;;;145.38;48.08;;;;;;;;;;5026833;28;20061;-60
2022/09/25 01:53:42;;;;;;;130.93;48.15;;;;;;;;;;5027096;28;20477;-61
2022/09/25 01:56:16;;;;;;;114.22;46.25;;;;;;;;;;5026620;28;20048;-61
2022/09/25 01:58:47;;;;;;;133.85;47.13;;;;;;;;;;5026624;28;20469;-61
2022/09/25 02:01:16;;;;;;;127.13;46.28;;;;;;;;;;5028054;28;20049;-60
2022/09/25 02:03:49;;;;;;;161.82;48.25;;;;;;;;;;5029959;28;20041;-63
2022/09/25 02:06:18;;;;;;;104.13;46.38;;;;;;;;;;5027691;28;20168;-61
2022/09/25 02:08:51;;;;;;;111.35;44.67;;;;;;;;;;5026792;28;20050;-62
2022/09/25 02:11:18;;;;;;;105.13;42.30;;;;;;;;;;5026883;28;20137;-61
2022/09/25 02:13:54;;;;;;;134.77;45.72;;;;;;;;;;5026185;28;20046;-61
2022/09/25 02:16:23;;;;;;;145.25;46.15;;;;;;;;;;5027220;28;20042;-60
2022/09/25 02:21:43;;;;;;;134.27;46.22;;;;;;;;;;5028752;28;20053;-60
2022/09/25 02:24:19;;;;;;;107.32;43.35;;;;;;;;;;5026602;28;20042;-60
2022/09/25 02:26:46;;;;;;;109.50;44.05;;;;;;;;;;5026490;28;20095;-60
2022/09/25 02:29:14;;;;;;;113.07;45.00;;;;;;;;;;5026611;28;20038;-59
2022/09/25 02:31:42;;;;;;;121.00;44.90;;;;;;;;;;5026414;28;20045;-58
2022/09/25 02:34:09;;;;;;;136.20;45.10;;;;;;;;;;5029002;28;20069;-57
2022/09/25 02:36:41;;;;;;;105.32;43.60;;;;;;;;;;5030192;28;20397;-58
2022/09/25 02:39:10;;;;;;;116.43;43.95;;;;;;;;;;5026363;28;20042;-59
2022/09/25 02:41:45;;;;;;;135.40;43.58;;;;;;;;;;5026298;28;20053;-59
2022/09/25 02:44:12;;;;;;;118.82;44.20;;;;;;;;;;5026019;28;20069;-59
2022/09/25 02:46:41;;;;;;;116.10;43.17;;;;;;;;;;5025915;28;20052;-58
2022/09/25 02:49:23;;;;;;;162.65;46.75;;;;;;;;;;5028391;28;20067;-59
2022/09/25 02:52:01;;;;;;;137.60;45.20;;;;;;;;;;5029739;28;20053;-60
2022/09/25 02:54:38;;;;;;;118.72;42.70;;;;;;;;;;5027806;28;20041;-58
2022/09/25 02:57:09;;;;;;;124.38;43.38;;;;;;;;;;5026234;28;20037;-58
2022/09/25 02:59:41;;;;;;;143.40;45.88;;;;;;;;;;5026009;28;20069;-58
2022/09/25 03:02:10;;;;;;;135.77;44.90;;;;;;;;;;5024398;28;20048;-58
2022/09/25 03:04:38;;;;;;;118.65;43.80;;;;;;;;;;5026305;28;20173;-58
2022/09/25 03:07:05;;;;;;;138.20;44.33;;;;;;;;;;5028855;28;20056;-58
2022/09/25 03:09:34;;;;;;;117.57;43.00;;;;;;;;;;5027890;28;20053;-58
2022/09/25 03:12:02;;;;;;;138.57;44.95;;;;;;;;;;5024845;28;20049;-57
2022/09/25 03:14:28;;;;;;;112.00;41.50;;;;;;;;;;5025589;28;20037;-57
2022/09/25 03:16:56;;;;;;;122.60;42.38;;;;;;;;;;5025305;28;20038;-58
2022/09/25 03:19:27;;;;;;;122.28;43.25;;;;;;;;;;5025841;28;20037;-58
2022/09/25 03:21:54;;;;;;;134.65;43.30;;;;;;;;;;5026092;28;20137;-59
2022/09/25 03:24:20;;;;;;;138.73;43.83;;;;;;;;;;5025264;28;20041;-58
2022/09/25 03:26:47;;;;;;;124.88;41.53;;;;;;;;;;5025396;28;20050;-58
2022/09/25 03:29:16;;;;;;;120.65;42.85;;;;;;;;;;5024935;28;20045;-58
2022/09/25 03:31:44;;;;;;;132.70;40.75;;;;;;;;;;5024842;28;20124;-58
2022/09/25 03:34:11;;;;;;;149.23;42.85;;;;;;;;;;5027006;28;20555;-57
2022/09/25 03:36:38;;;;;;;106.82;41.25;;;;;;;;;;5028349;28;20487;-57
2022/09/25 03:39:05;;;;;;;109.70;39.63;;;;;;;;;;5024969;28;20443;-57
2022/09/25 03:41:33;;;;;;;131.80;41.53;;;;;;;;;;5025203;28;20042;-57
2022/09/25 03:44:00;;;;;;;119.53;39.55;;;;;;;;;;5025228;28;20045;-61
2022/09/25 03:46:27;;;;;;;123.45;42.25;;;;;;;;;;5025743;28;20030;-61
2022/09/25 03:48:54;;;;;;;123.07;40.78;;;;;;;;;;5025888;28;20705;-60
2022/09/25 03:51:21;;;;;;;90.10;39.17;;;;;;;;;;5028608;28;20132;-58
2022/09/25 03:53:48;;;;;;;115.47;40.60;;;;;;;;;;5024461;28;20041;-58
2022/09/25 03:56:17;;;;;;;139.27;40.72;;;;;;;;;;5028308;28;20109;-58
2022/09/25 03:58:43;;;;;;;105.25;39.58;;;;;;;;;;5024787;28;20070;-58
2022/09/25 04:01:10;;;;;;;142.18;40.75;;;;;;;;;;5026759;28;20128;-59
2022/09/25 04:03:36;;;;;;;135.27;42.33;;;;;;;;;;5026486;28;20107;-59
2022/09/25 04:06:04;;;;;;;115.78;39.72;;;;;;;;;;5024752;28;20046;-59
2022/09/25 04:08:31;;;;;;;144.60;42.58;;;;;;;;;;5024520;28;20042;-59
2022/09/25 04:10:58;;;;;;;136.80;43.00;;;;;;;;;;5024907;28;20112;-61
2022/09/25 04:13:28;;;;;;;103.43;40.40;;;;;;;;;;5022064;28;20040;-61
2022/09/25 04:15:56;;;;;;;123.90;41.67;;;;;;;;;;5025318;28;20107;-61
2022/09/25 04:18:23;;;;;;;108.38;38.97;;;;;;;;;;5025063;28;20045;-61
2022/09/25 04:20:50;;;;;;;106.30;40.10;;;;;;;;;;5024623;28;20049;-60
2022/09/25 04:23:16;;;;;;;96.55;38.10;;;;;;;;;;5024278;28;20543;-58
2022/09/25 04:25:44;;;;;;;128.80;40.22;;;;;;;;;;5024141;28;20042;-59
2022/09/25 04:28:11;;;;;;;122.93;39.78;;;;;;;;;;5026939;28;20055;-58
2022/09/25 04:30:37;;;;;;;103.57;39.28;;;;;;;;;;5027156;28;20031;-59
2022/09/25 04:35:49;;;;;;;113.78;40.05;;;;;;;;;;5028453;28;20050;-60
2022/09/25 04:38:16;;;;;;;137.20;42.17;;;;;;;;;;5024183;28;20037;-60
2022/09/25 04:40:44;;;;;;;100.18;39.28;;;;;;;;;;5027969;28;20581;-62
2022/09/25 04:43:11;;;;;;;150.85;40.63;;;;;;;;;;5026862;28;20072;-62
2022/09/25 04:45:37;;;;;;;125.22;41.30;;;;;;;;;;5027379;28;20041;-60
2022/09/25 04:48:04;;;;;;;116.90;39.85;;;;;;;;;;5025122;28;20056;-59
2022/09/25 04:50:31;;;;;;;103.05;38.22;;;;;;;;;;5024123;28;20573;-59
2022/09/25 04:53:00;;;;;;;137.70;40.67;;;;;;;;;;5025005;28;20033;-60
2022/09/25 04:55:27;;;;;;;135.32;40.13;;;;;;;;;;5007643;28;20045;-57
2022/09/25 04:57:55;;;;;;;143.25;43.22;;;;;;;;;;5023366;28;20045;-57
2022/09/25 05:00:26;;;;;;;108.90;38.97;;;;;;;;;;5025048;28;20242;-58
2022/09/25 05:02:52;;;;;;;89.50;37.53;;;;;;;;;;5027249;28;20045;-60
2022/09/25 05:05:19;;;;;;;112.38;37.30;;;;;;;;;;5028286;28;20054;-61
2022/09/25 05:07:53;;;;;;;121.88;39.33;;;;;;;;;;5028106;28;20052;-61
2022/09/25 05:10:19;;;;;;;;;;;;;;;;;;5029693;28;20041;-62
2022/09/25 05:12:47;;;;;;;197.85;40.60;;;;;;;;;;5030899;28;19921;-62
2022/09/25 05:15:14;;;;;;;171.00;40.53;;;;;;;;;;5026205;28;20216;-62
2022/09/25 05:17:40;;;;;;;105.18;34.72;;;;;;;;;;5026969;28;20080;-62
2022/09/25 05:20:08;;;;;;;124.63;35.45;;;;;;;;;;5027216;28;20045;-62
2022/09/25 05:22:34;;;;;;;190.93;39.00;;;;;;;;;;5027288;28;20054;-63
2022/09/25 05:25:01;;;;;;;132.23;35.53;;;;;;;;;;5031507;28;20495;-62
2022/09/25 05:27:27;;;;;;;115.28;35.60;;;;;;;;;;5028945;28;20388;-62
2022/09/25 05:29:54;;;;;;;164.88;38.33;;;;;;;;;;5027551;28;20041;-63
2022/09/25 05:32:21;;;;;;;90.90;32.38;;;;;;;;;;5028296;28;22171;-62
2022/09/25 05:34:48;;;;;;;97.65;31.27;;;;;;;;;;5027932;28;20117;-60
2022/09/25 05:37:14;;;;;;;123.38;34.47;;;;;;;;;;5028956;28;20064;-60
2022/09/25 05:39:41;;;;;;;79.65;32.20;;;;;;;;;;5030866;28;20442;-60
2022/09/25 05:42:07;;;;;;;83.07;33.25;;;;;;;;;;5027754;28;20055;-61
2022/09/25 05:44:34;;;;;;;88.65;29.63;;;;;;;;;;5027641;28;20048;-62
2022/09/25 05:47:02;;;;;;;83.47;30.42;;;;;;;;;;5027721;28;20037;-62
2022/09/25 05:49:29;;;;;;;90.18;30.38;;;;;;;;;;5027584;28;20058;-61
2022/09/25 05:51:55;;;;;;;112.63;30.42;;;;;;;;;;5031692;28;20081;-62
2022/09/25 05:54:22;;;;;;;60.47;25.38;;;;;;;;;;5027560;28;20048;-62
2022/09/25 05:56:48;;;;;;;64.95;25.00;;;;;;;;;;5027431;28;20041;-61
2022/09/25 05:59:15;;;;;;;94.40;27.08;;;;;;;;;;5027256;28;20492;-61
2022/09/25 06:01:42;;;;;;;66.03;24.30;;;;;;;;;;5027695;28;20062;-63
2022/09/25 06:04:09;;;;;;;86.65;26.40;;;;;;;;;;5029990;28;20068;-60
2022/09/25 06:06:35;;;;;;;59.15;23.27;;;;;;;;;;5029103;28;20045;-65
2022/09/25 06:09:02;;;;;;;63.03;21.90;;;;;;;;;;5027210;28;20041;-64
2022/09/25 06:11:30;;;;;;;52.50;20.65;;;;;;;;;;5026921;28;20049;-61
2022/09/25 06:13:56;;;;;;;62.92;20.20;;;;;;;;;;5026430;28;20042;-59
2022/09/25 06:16:23;;;;;;;57.58;17.85;;;;;;;;;;5027896;28;20499;-60
2022/09/25 06:18:51;;;;;;;49.38;15.45;;;;;;;;;;5031314;28;20044;-59
2022/09/25 06:21:17;;;;;;;51.80;14.38;;;;;;;;;;5026653;28;20049;-60
2022/09/25 06:23:45;;;;;;;52.13;14.23;;;;;;;;;;5026761;28;20687;-60
2022/09/25 06:26:12;;;;;;;71.03;15.55;;;;;;;;;;5026585;28;20033;-60
2022/09/25 06:28:39;;;;;;;51.58;12.48;;;;;;;;;;5027094;28;20046;-59
2022/09/25 06:31:05;;;;;;;76.45;15.52;;;;;;;;;;5030801;28;20048;-59
2022/09/25 06:33:32;;;;;;;39.78;13.13;;;;;;;;;;5031371;28;20107;-60
2022/09/25 06:35:59;;;;;;;47.25;12.63;;;;;;;;;;5026586;28;20136;-59
2022/09/25 06:38:26;;;;;;;60.50;13.70;;;;;;;;;;5026352;28;20506;-60
2022/09/25 06:40:53;;;;;;;44.50;12.07;;;;;;;;;;5026631;28;20044;-59
2022/09/25 06:43:26;;;;;;;63.35;13.50;;;;;;;;;;5027117;28;20036;-60
2022/09/25 06:45:52;;;;;;;49.13;11.90;;;;;;;;;;5030774;28;20034;-60
2022/09/25 06:48:20;;;;;;;36.55;11.23;;;;;;;;;;5026433;28;20045;-60
2022/09/25 06:50:51;;;;;;;41.08;11.10;;;;;;;;;;5026177;28;20503;-59
2022/09/25 06:53:19;;;;;;;39.70;11.30;;;;;;;;;;5021885;28;20049;-59
2022/09/25 06:55:46;;;;;;;42.75;10.85;;;;;;;;;;5026171;28;20539;-60
2022/09/25 06:58:14;;;;;;;88.85;14.10;;;;;;;;;;5028756;28;20053;-60
2022/09/25 07:00:40;;;;;;;36.58;10.40;;;;;;;;;;5027755;28;20044;-60
2022/09/25 07:05:52;;;;;;;61.15;12.10;;;;;;;;;;5029801;28;20465;-61
2022/09/25 07:08:22;;;;;;;40.58;10.55;;;;;;;;;;5029763;28;20095;-62
2022/09/25 07:10:49;;;;;;;42.20;11.05;;;;;;;;;;5029859;28;20037;-62
2022/09/25 07:13:16;;;;;;;50.63;11.88;;;;;;;;;;5030347;28;20041;-61
2022/09/25 07:15:49;;;;;;;52.53;11.73;;;;;;;;;;5030288;28;20125;-61
2022/09/25 07:18:15;;;;;;;61.72;12.38;;;;;;;;;;5029569;28;20037;-62
2022/09/25 07:20:44;;;;;;;34.25;10.30;;;;;;;;;;5029821;28;20054;-62
2022/09/25 07:23:12;;;;;;;34.78;10.13;;;;;;;;;;5029126;28;20044;-62
2022/09/25 07:25:38;;;;;;;78.88;12.00;;;;;;;;;;5028722;28;20045;-61
2022/09/25 07:28:06;;;;;;;64.18;12.55;;;;;;;;;;5029749;28;20073;-61
2022/09/25 07:30:33;;;;;;;64.63;11.90;;;;;;;;;;5028785;28;20561;-59
2022/09/25 07:33:00;;;;;;;69.13;12.15;;;;;;;;;;5028211;28;20042;-61
2022/09/25 07:35:26;;;;;;;34.58;9.38;;;;;;;;;;5029266;28;20038;-60
2022/09/25 07:37:56;;;;;;;73.63;12.30;;;;;;;;;;5028817;28;20475;-60
2022/09/25 07:40:25;;;;;;;98.35;14.68;;;;;;;;;;5025434;28;20065;-61
2022/09/25 07:42:52;;;;;;;62.65;11.85;;;;;;;;;;5028951;28;20133;-61
2022/09/25 07:45:18;;;;;;;54.63;10.68;;;;;;;;;;5024002;28;20095;-61
2022/09/25 07:47:45;;;;;;;146.45;15.07;;;;;;;;;;5023747;28;20049;-60
2022/09/25 07:50:11;;;;;;;45.70;9.65;;;;;;;;;;5024906;28;20063;-59
2022/09/25 07:52:41;;;;;;;40.20;9.70;;;;;;;;;;5024872;28;20599;-60
2022/09/25 07:55:07;;;;;;;77.07;11.70;;;;;;;;;;5028644;28;20033;-60
2022/09/25 07:57:34;;;;;;;36.45;9.93;;;;;;;;;;5026907;28;20056;-61
2022/09/25 08:00:00;;;;;;;60.17;9.93;;;;;;;;;;5024791;28;20583;-60
2022/09/25 08:02:37;;;;;;;43.53;8.60;;;;;;;;;;5025150;28;20079;-61
2022/09/25 08:05:03;;;;;;;47.78;9.90;;;;;;;;;;5025101;28;20480;-61
2022/09/25 08:07:30;;;;;;;45.90;9.13;;;;;;;;;;5024884;28;20104;-61
2022/09/25 08:09:56;;;;;;;72.90;11.07;;;;;;;;;;5025365;28;20045;-61
2022/09/25 08:12:24;;;;;;;35.05;8.63;;;;;;;;;;5026045;28;20040;-61
2022/09/25 08:14:51;;;;;;;25.95;7.45;;;;;;;;;;5025018;28;20059;-61
2022/09/25 08:17:18;;;;;;;43.33;8.65;;;;;;;;;;5024690;28;20579;-60
2022/09/25 08:19:45;;;;;;;41.08;7.90;;;;;;;;;;5024886;28;20443;-60
2022/09/25 08:22:11;;;;;;;70.40;10.05;;;;;;;;;;5027459;28;20034;-60
2022/09/25 08:24:38;;;;;;;65.68;9.43;;;;;;;;;;5026948;28;20495;-59
2022/09/25 08:27:06;;;;;;;47.88;8.00;;;;;;;;;;5024928;28;20042;-60
2022/09/25 08:29:33;;;;;;;46.03;7.90;;;;;;;;;;5028948;28;20045;-59
2022/09/25 08:32:00;;;;;;;87.18;10.57;;;;;;;;;;5023994;28;20042;-60
2022/09/25 08:34:27;;;;;;;60.22;8.70;;;;;;;;;;5025339;28;20053;-60
2022/09/25 08:37:07;;;;;;;92.72;10.38;;;;;;;;;;5024667;28;20156;-61
2022/09/25 08:39:34;;;;;;;46.88;6.78;;;;;;;;;;5028597;28;20050;-61
2022/09/25 08:42:01;;;;;;;75.22;9.32;;;;;;;;;;5024203;28;20083;-61
2022/09/25 08:44:29;;;;;;;102.55;10.95;;;;;;;;;;5024156;28;20030;-61
2022/09/25 08:50:03;;;;;;;38.95;6.55;;;;;;;;;;5024216;28;20041;-59
2022/09/25 08:52:30;;;;;;;60.38;8.23;;;;;;;;;;5024603;28;20487;-59
2022/09/25 08:54:57;;;;;;;67.32;8.38;;;;;;;;;;5029141;28;20054;-59
2022/09/25 08:57:33;;;;;;;28.92;6.32;;;;;;;;;;5024710;28;20488;-61
2022/09/25 09:00:05;;;;;;;43.72;6.45;;;;;;;;;;5024350;28;20084;-59
2022/09/25 09:02:31;;;;;;;40.83;6.43;;;;;;;;;;5017137;28;20037;-58
2022/09/25 09:05:00;;;;;;;58.45;7.85;;;;;;;;;;5024522;28;20045;-62
2022/09/25 09:07:41;;;;;;;86.55;8.27;;;;;;;;;;5028136;28;20038;-61
2022/09/25 09:10:08;;;;;;;50.10;6.80;;;;;;;;;;5027989;28;20128;-61
2022/09/25 09:12:42;;;;;;;35.55;5.78;;;;;;;;;;5027939;28;20041;-65
2022/09/25 09:15:29;;;;;;;43.78;6.45;;;;;;;;;;5024088;28;20049;-63
2022/09/25 09:17:56;;;;;;;58.97;6.90;;;;;;;;;;5023850;28;20048;-64
2022/09/25 09:20:27;;;;;;;133.40;10.10;;;;;;;;;;5024032;28;20579;-62
2022/09/25 09:22:54;;;;;;;50.33;6.90;;;;;;;;;;5023753;28;20038;-63
2022/09/25 09:25:29;;;;;;;75.85;7.68;;;;;;;;;;5025743;28;20496;-64
2022/09/25 09:28:05;;;;;;;60.95;6.78;;;;;;;;;;5029034;28;20049;-62
2022/09/25 09:30:41;;;;;;;41.20;6.40;;;;;;;;;;5024989;28;20045;-65
2022/09/25 09:33:27;;;;;;;32.53;5.82;;;;;;;;;;5024037;28;20037;-63
2022/09/25 09:35:59;;;;;;;56.28;6.50;;;;;;;;;;5023106;28;20046;-66
2022/09/25 09:38:34;;;;;;;31.95;5.20;;;;;;;;;;5023324;28;20038;-61
2022/09/25 09:41:07;;;;;;;51.97;6.05;;;;;;;;;;5023986;28;20053;-61
2022/09/25 09:43:35;;;;;;;59.50;6.70;;;;;;;;;;5023799;28;20120;-61
2022/09/25 09:46:07;;;;;;;37.55;4.93;;;;;;;;;;5028474;28;20053;-62
2022/09/25 09:48:52;;;;;;;49.65;6.35;;;;;;;;;;5026934;28;20111;-62
2022/09/25 09:51:22;;;;;;;37.90;5.50;;;;;;;;;;5028191;28;20058;-59
2022/09/25 09:53:48;;;;;;;44.15;5.97;;;;;;;;;;5027000;28;20038;-59
2022/09/25 09:56:18;;;;;;;29.40;5.22;;;;;;;;;;5027541;28;20488;-61
2022/09/25 09:58:47;;;;;;;82.53;7.57;;;;;;;;;;5014235;28;20042;-63
2022/09/25 10:01:16;;;;;;;74.35;8.20;;;;;;;;;;5031105;28;20050;-61
2022/09/25 10:04:23;;;;;;;63.22;6.65;;;;;;;;;;5031714;28;20048;-61
2022/09/25 10:06:56;;;;;;;41.38;6.03;;;;;;;;;;5030474;28;20041;-62
2022/09/25 10:09:25;;;;;;;46.60;5.63;;;;;;;;;;5027681;28;20046;-62
2022/09/25 10:11:56;;;;;;;94.88;8.80;;;;;;;;;;5027128;28;20041;-60
2022/09/25 10:14:26;;;;;;;61.97;6.72;;;;;;;;;;5027673;28;20037;-61
2022/09/25 10:16:54;;;;;;;46.50;6.20;;;;;;;;;;5027195;28;20128;-61
2022/09/25 10:19:22;;;;;;;45.28;5.53;;;;;;;;;;5024127;28;20511;-61
2022/09/25 10:22:08;;;;;;;67.78;6.68;;;;;;;;;;5030352;28;20046;-61
2022/09/25 10:24:50;;;;;;;59.25;6.72;;;;;;;;;;5028145;28;20046;-61
2022/09/25 10:27:29;;;;;;;70.65;6.45;;;;;;;;;;5026909;28;20072;-61
2022/09/25 10:30:02;;;;;;;64.25;6.63;;;;;;;;;;5027506;28;20038;-61
2022/09/25 10:32:29;;;;;;;78.45;8.02;;;;;;;;;;5027981;28;20046;-61
2022/09/25 10:34:55;;;;;;;88.25;8.35;;;;;;;;;;5027060;28;20128;-60
2022/09/25 10:37:28;;;;;;;56.05;6.75;;;;;;;;;;5028272;28;20045;-60
2022/09/25 10:39:59;;;;;;;64.95;6.85;;;;;;;;;;5030618;28;20050;-60
2022/09/25 10:42:31;;;;;;;81.20;8.80;;;;;;;;;;5026209;28;20648;-61
2022/09/25 10:44:57;;;;;;;34.38;4.60;;;;;;;;;;5026958;28;20141;-61
2022/09/25 10:50:13;;;;;;;62.50;6.72;;;;;;;;;;5028550;28;20052;-62
2022/09/25 10:52:51;;;;;;;145.85;11.70;;;;;;;;;;5025339;28;20030;-62
2022/09/25 10:55:18;;;;;;;80.47;7.70;;;;;;;;;;5027324;28;20041;-62
2022/09/25 10:57:45;;;;;;;61.40;6.72;;;;;;;;;;5028115;28;20487;-62
2022/09/25 11:00:23;;;;;;;90.43;8.30;;;;;;;;;;5028925;28;20055;-62
2022/09/25 11:02:52;;;;;;;59.45;6.55;;;;;;;;;;5025236;28;20042;-62
2022/09/25 11:05:20;;;;;;;55.42;6.25;;;;;;;;;;5026168;28;20144;-62
2022/09/25 11:07:53;;;;;;;49.58;5.22;;;;;;;;;;5026025;28;20112;-62
2022/09/25 11:10:21;;;;;;;54.92;6.18;;;;;;;;;;5028023;28;20045;-62
2022/09/25 11:12:49;;;;;;;99.95;8.52;;;;;;;;;;5027967;28;20041;-62
2022/09/25 11:15:17;;;;;;;38.65;5.28;;;;;;;;;;5024579;28;20034;-62
2022/09/25 11:17:45;;;;;;;71.75;7.13;;;;;;;;;;5024082;28;20499;-62
2022/09/25 11:20:12;;;;;;;61.80;6.97;;;;;;;;;;5024087;28;20706;-62
2022/09/25 11:22:39;;;;;;;41.97;5.20;;;;;;;;;;5023771;28;20049;-62
2022/09/25 11:25:15;;;;;;;85.78;7.85;;;;;;;;;;5028437;28;20048;-62
2022/09/25 11:28:03;;;;;;;54.55;6.65;;;;;;;;;;5027637;28;20049;-62
2022/09/25 11:30:32;;;;;;;42.17;5.95;;;;;;;;;;5029493;28;20048;-61
2022/09/25 11:33:23;;;;;;;74.15;7.25;;;;;;;;;;5029596;28;20042;-62
2022/09/25 11:35:49;;;;;;;77.47;7.30;;;;;;;;;;5029110;28;20049;-62
2022/09/25 11:41:10;;;;;;;39.78;5.10;;;;;;;;;;5029360;28;20108;-62
2022/09/25 11:41:11;;;;;;;50.63;6.03;;;;;;;;;;5029338;28;20563;-62
2022/09/25 11:43:42;;;;;;;54.72;6.10;;;;;;;;;;5029406;28;20045;-62
2022/09/25 11:46:23;;;;;;;57.97;6.60;;;;;;;;;;5029572;28;20099;-62
2022/09/25 11:48:50;;;;;;;21.52;3.90;;;;;;;;;;5028792;28;20514;-62
2022/09/25 11:51:35;;;;;;;38.25;4.82;;;;;;;;;;5028995;28;20053;-62
2022/09/25 11:54:12;;;;;;;89.95;9.23;;;;;;;;;;5028775;28;20539;-62
2022/09/25 11:57:18;;;;;;;90.57;9.75;;;;;;;;;;5028613;28;20049;-62
2022/09/25 11:59:48;;;;;;;51.85;6.45;;;;;;;;;;5029054;28;20053;-62
2022/09/25 12:02:19;;;;;;;124.15;10.68;;;;;;;;;;5029236;28;20541;-62
2022/09/25 12:04:46;;;;;;;48.03;6.53;;;;;;;;;;5028855;28;20056;-62
2022/09/25 12:07:12;;;;;;;54.00;6.65;;;;;;;;;;5028755;28;20045;-62
2022/09/25 12:09:57;;;;;;;107.45;8.77;;;;;;;;;;5029038;28;20072;-63
2022/09/25 12:12:27;;;;;;;42.35;6.22;;;;;;;;;;5028201;28;20053;-62
2022/09/25 12:15:02;;;;;;;61.83;6.68;;;;;;;;;;5028555;28;20506;-62
2022/09/25 12:17:32;;;;;;;38.10;5.30;;;;;;;;;;5029016;28;20041;-60
2022/09/25 12:20:14;;;;;;;79.13;7.70;;;;;;;;;;5027937;28;20407;-60
2022/09/25 12:22:47;;;;;;;41.08;5.82;;;;;;;;;;5028256;28;20672;-60
2022/09/25 12:25:15;;;;;;;;;;;;;;;;;;5028754;28;20042;-60
2022/09/25 12:28:02;;;;;;;38.55;5.03;;;;;;;;;;5029078;28;19921;-59
2022/09/25 12:30:55;;;;;;;47.25;6.03;;;;;;;;;;5028132;28;20041;-59
2022/09/25 12:33:31;;;;;;;43.40;6.20;;;;;;;;;;5021305;28;20054;-60
2022/09/25 12:36:10;;;;;;;102.53;8.93;;;;;;;;;;5021250;28;20101;-60
2022/09/25 12:38:51;;;;;;;46.10;5.63;;;;;;;;;;5013672;28;20057;-60
2022/09/25 12:41:27;;;;;;;54.47;6.65;;;;;;;;;;5021277;28;20076;-60
2022/09/25 12:44:03;;;;;;;69.57;7.40;;;;;;;;;;5023055;28;20104;-60
2022/09/25 12:46:33;;;;;;;70.82;7.50;;;;;;;;;;5025237;28;20050;-61
2022/09/25 12:49:03;;;;;;;123.68;10.40;;;;;;;;;;5022133;28;20049;-61
2022/09/25 12:51:33;;;;;;;36.67;5.03;;;;;;;;;;5021183;28;20065;-61
2022/09/25 12:54:04;;;;;;;45.08;5.82;;;;;;;;;;5020880;28;20503;-61
2022/09/25 12:56:36;;;;;;;69.80;7.57;;;;;;;;;;5020846;28;20494;-61
2022/09/25 12:59:12;;;;;;;61.20;6.97;;;;;;;;;;5026086;28;20046;-61
2022/09/25 13:01:57;;;;;;;45.85;6.07;;;;;;;;;;5025703;28;20045;-61
2022/09/25 13:04:33;;;;;;;213.65;15.50;;;;;;;;;;5024278;28;20523;-62
2022/09/25 13:07:04;;;;;;;119.43;9.98;;;;;;;;;;5021807;28;20073;-61
2022/09/25 13:09:39;;;;;;;107.43;9.25;;;;;;;;;;5021817;28;20534;-61
2022/09/25 13:12:18;;;;;;;38.70;6.72;;;;;;;;;;5028583;28;20049;-61
2022/09/25 13:14:47;;;;;;;108.35;9.80;;;;;;;;;;5028391;28;20614;-61
2022/09/25 13:17:14;;;;;;;115.32;11.63;;;;;;;;;;5028262;28;20037;-61
2022/09/25 13:19:41;;;;;;;90.68;9.23;;;;;;;;;;5028225;28;20053;-61
2022/09/25 13:22:23;;;;;;;193.27;14.55;;;;;;;;;;5027908;28;20526;-61
2022/09/25 13:24:52;;;;;;;72.05;9.07;;;;;;;;;;5032917;28;20129;-61
2022/09/25 13:27:21;;;;;;;105.47;10.63;;;;;;;;;;5027682;28;20518;-61
2022/09/25 13:29:53;;;;;;;176.10;15.88;;;;;;;;;;5027524;28;20454;-61
2022/09/25 13:32:22;;;;;;;75.60;8.93;;;;;;;;;;5028252;28;20049;-61
2022/09/25 13:34:54;;;;;;;110.10;11.07;;;;;;;;;;5027976;28;20069;-61
2022/09/25 13:37:23;;;;;;;66.05;8.00;;;;;;;;;;5030337;28;20099;-61
2022/09/25 13:42:41;;;;;;;129.15;12.40;;;;;;;;;;5028642;28;20450;-61
2022/09/25 13:45:16;;;;;;;157.20;16.10;;;;;;;;;;5027539;28;20041;-61
2022/09/25 13:47:48;;;;;;;89.22;9.57;;;;;;;;;;5023519;28;20119;-61
2022/09/25 13:50:38;;;;;;;125.97;10.20;;;;;;;;;;5027293;28;20132;-62
2022/09/25 13:53:16;;;;;;;51.05;6.65;;;;;;;;;;5024483;28;20054;-61
2022/09/25 13:55:49;;;;;;;65.63;7.57;;;;;;;;;;5031597;28;20087;-61
2022/09/25 13:58:23;;;;;;;54.00;7.17;;;;;;;;;;5030583;28;20087;-61
2022/09/25 14:00:53;;;;;;;34.65;6.28;;;;;;;;;;5030762;28;20066;-61
2022/09/25 14:03:31;;;;;;;41.00;6.80;;;;;;;;;;5027551;28;20041;-61
2022/09/25 14:05:58;;;;;;;74.75;7.68;;;;;;;;;;5027212;28;20053;-61
2022/09/25 14:08:26;;;;;;;79.32;9.10;;;;;;;;;;5026682;28;20045;-61
2022/09/25 14:10:54;;;;;;;103.78;9.25;;;;;;;;;;5027715;28;20089;-61
2022/09/25 14:13:22;;;;;;;143.35;13.50;;;;;;;;;;5028325;28;20045;-61
2022/09/25 14:15:50;;;;;;;150.57;12.52;;;;;;;;;;5029849;28;20038;-61
2022/09/25 14:18:31;;;;;;;198.00;15.77;;;;;;;;;;5027040;28;20045;-61
2022/09/25 14:20:59;;;;;;;199.05;15.90;;;;;;;;;;5027416;28;20041;-61
2022/09/25 14:23:28;;;;;;;220.60;15.38;;;;;;;;;;5026523;28;20067;-61
2022/09/25 14:25:56;;;;;;;128.57;11.43;;;;;;;;;;5026583;28;20491;-61
2022/09/25 14:28:27;;;;;;;90.93;9.75;;;;;;;;;;5028790;28;20415;-61
2022/09/25 14:31:06;;;;;;;188.45;14.35;;;;;;;;;;5030312;28;20067;-61
2022/09/25 14:33:42;;;;;;;83.72;9.32;;;;;;;;;;5026798;28;20046;-61
2022/09/25 14:36:24;;;;;;;157.10;18.30;;;;;;;;;;5026320;28;20758;-61
2022/09/25 14:38:50;;;;;;;183.77;17.20;;;;;;;;;;5027023;28;20052;-61
2022/09/25 14:41:38;;;;;;;177.02;17.15;;;;;;;;;;5026760;28;20033;-61
2022/09/25 14:44:15;;;;;;;159.50;13.07;;;;;;;;;;5026308;28;20075;-61
2022/09/25 14:46:42;;;;;;;101.70;11.20;;;;;;;;;;5026686;28;20136;-60
2022/09/25 14:49:22;;;;;;;82.10;10.20;;;;;;;;;;5030743;28;20562;-61
2022/09/25 14:51:50;;;;;;;98.70;10.55;;;;;;;;;;5028576;28;20423;-60
2022/09/25 14:54:18;;;;;;;91.10;9.13;;;;;;;;;;5026416;28;20060;-62